createdAt,value
2017-05-13T00:00:34.209Z,74.08
2017-05-13T00:01:43.167Z,74.18
2017-05-13T00:02:52.127Z,74.37
2017-05-13T00:04:01.088Z,73.99
2017-05-13T00:05:10.295Z,74.18
2017-05-13T00:06:19.256Z,74.08
2017-05-13T00:07:28.303Z,73.99
2017-05-13T00:08:37.263Z,74.05
2017-05-13T00:09:46.219Z,73.99
2017-05-13T00:10:55.434Z,74.18
2017-05-13T00:12:04.396Z,74.66
2017-05-13T00:13:13.356Z,74.47
2017-05-13T00:14:22.323Z,74.27
2017-05-13T00:15:31.279Z,74.85
2017-05-13T00:16:40.490Z,74.66
2017-05-13T00:17:49.773Z,74.27
2017-05-13T00:18:58.786Z,73.99
2017-05-13T00:20:07.753Z,74.08
2017-05-13T00:21:16.709Z,73.99
2017-05-13T00:22:25.971Z,73.99
2017-05-13T00:23:34.934Z,74.27
2017-05-13T00:24:43.904Z,74.52
2017-05-13T00:25:52.866Z,74.43
2017-05-13T00:27:01.827Z,74.72
2017-05-13T00:28:11.031Z,74.62
2017-05-13T00:29:19.999Z,74.43
2017-05-13T00:30:28.960Z,74.18
2017-05-13T00:31:37.926Z,74.08
2017-05-13T00:32:46.887Z,73.99
2017-05-13T00:33:56.103Z,73.95
2017-05-13T00:35:05.071Z,74.24
2017-05-13T00:36:14.033Z,74.05
2017-05-13T00:37:22.992Z,74.15
2017-05-13T00:38:31.956Z,74.05
2017-05-13T00:39:41.174Z,73.95
2017-05-13T00:40:50.470Z,74.05
2017-05-13T00:41:59.439Z,74.15
2017-05-13T00:43:08.398Z,73.95
2017-05-13T00:44:17.358Z,74.24
2017-05-13T00:45:26.568Z,73.95
2017-05-13T00:46:35.524Z,74.15
2017-05-13T00:47:44.490Z,73.95
2017-05-13T00:48:53.777Z,73.95
2017-05-13T00:50:02.733Z,74.15
2017-05-13T00:51:11.944Z,74.43
2017-05-13T00:52:20.908Z,74.33
2017-05-13T00:53:29.875Z,74.24
2017-05-13T00:54:38.833Z,74.62
2017-05-13T00:55:47.789Z,74.72
2017-05-13T00:56:56.998Z,74.72
2017-05-13T00:58:06.052Z,74.62
2017-05-13T00:59:15.016Z,74.43
2017-05-13T01:00:23.982Z,74.62
2017-05-13T01:01:32.940Z,74.82
2017-05-13T01:02:42.150Z,74.24
2017-05-13T01:03:51.117Z,74.62
2017-05-13T01:05:00.079Z,74.24
2017-05-13T01:06:09.127Z,74.72
2017-05-13T01:07:18.167Z,74.33
2017-05-13T01:08:27.380Z,74.91
2017-05-13T01:09:36.339Z,75.1
2017-05-13T01:10:45.306Z,75.1
2017-05-13T01:11:54.446Z,74.91
2017-05-13T01:13:03.409Z,74.49
2017-05-13T01:14:12.671Z,75.1
2017-05-13T01:15:21.633Z,74.52
2017-05-13T01:16:30.601Z,75.26
2017-05-13T01:17:39.653Z,75.1
2017-05-13T01:18:48.744Z,75.1
2017-05-13T01:19:57.955Z,75.2
2017-05-13T01:21:06.915Z,75.01
2017-05-13T01:22:15.873Z,74.77
2017-05-13T01:23:25.156Z,74.87
2017-05-13T01:24:34.123Z,75.16
2017-05-13T01:25:43.341Z,74.97
2017-05-13T01:26:52.302Z,74.68
2017-05-13T01:28:01.262Z,74.77
2017-05-13T01:29:10.221Z,74.77
2017-05-13T01:30:19.508Z,74.68
2017-05-13T01:31:28.738Z,75.16
2017-05-13T01:32:37.694Z,74.87
2017-05-13T01:33:46.652Z,75.26
2017-05-13T01:34:55.616Z,74.49
2017-05-13T01:36:04.577Z,75.07
2017-05-13T01:37:13.789Z,75.07
2017-05-13T01:38:22.752Z,74.97
2017-05-13T01:39:31.708Z,74.87
2017-05-13T01:40:40.764Z,75.45
2017-05-13T01:41:49.810Z,75.35
2017-05-13T01:42:59.023Z,75.89
2017-05-13T01:44:07.982Z,76.08
2017-05-13T01:45:16.944Z,75.98
2017-05-13T01:46:25.900Z,76.37
2017-05-13T01:47:34.865Z,76.27
2017-05-13T01:48:44.095Z,76.18
2017-05-13T01:49:53.056Z,76.18
2017-05-13T01:51:02.016Z,76.37
2017-05-13T01:52:10.976Z,76.08
2017-05-13T01:53:20.022Z,76.46
2017-05-13T01:54:29.236Z,76.94
2017-05-13T01:55:38.213Z,76.94
2017-05-13T01:56:47.174Z,77.23
2017-05-13T01:57:56.147Z,76.65
2017-05-13T01:59:05.193Z,77.33
2017-05-13T02:00:14.402Z,76.56
2017-05-13T02:01:23.369Z,76.65
2017-05-13T02:02:32.348Z,76.52
2017-05-13T02:03:41.304Z,76.65
2017-05-13T02:04:50.268Z,76.75
2017-05-13T02:05:59.477Z,76.56
2017-05-13T02:07:08.441Z,76.62
2017-05-13T02:08:17.404Z,76.71
2017-05-13T02:09:26.370Z,76.65
2017-05-13T02:10:35.413Z,76.62
2017-05-13T02:11:44.787Z,76.52
2017-05-13T02:12:53.834Z,76.52
2017-05-13T02:14:02.885Z,76.52
2017-05-13T02:15:11.844Z,76.33
2017-05-13T02:16:20.806Z,75.85
2017-05-13T02:17:30.015Z,75.98
2017-05-13T02:18:38.973Z,75.98
2017-05-13T02:19:47.931Z,75.79
2017-05-13T02:20:56.897Z,76.04
2017-05-13T02:22:05.853Z,75.89
2017-05-13T02:23:15.063Z,75.85
2017-05-13T02:24:24.154Z,75.56
2017-05-13T02:25:33.115Z,75.76
2017-05-13T02:26:42.086Z,75.66
2017-05-13T02:27:51.046Z,75.66
2017-05-13T02:29:00.584Z,75.76
2017-05-13T02:30:09.552Z,75.76
2017-05-13T02:31:18.602Z,75.85
2017-05-13T02:32:27.562Z,75.76
2017-05-13T02:33:36.520Z,76.04
2017-05-13T02:34:45.817Z,75.47
2017-05-13T02:35:54.899Z,74.99
2017-05-13T02:37:03.864Z,74.9
2017-05-13T02:38:12.826Z,75.09
2017-05-13T02:39:21.787Z,74.8
2017-05-13T02:40:30.996Z,74.8
2017-05-13T02:41:39.951Z,75.09
2017-05-13T02:42:48.916Z,74.8
2017-05-13T02:43:57.880Z,74.8
2017-05-13T02:45:06.837Z,74.51
2017-05-13T02:46:16.040Z,74.16
2017-05-13T02:47:24.997Z,73.94
2017-05-13T02:48:33.953Z,74.41
2017-05-13T02:49:42.914Z,73.84
2017-05-13T02:50:51.881Z,73.97
2017-05-13T02:52:01.090Z,73.69
2017-05-13T02:53:10.050Z,73.97
2017-05-13T02:54:19.009Z,73.97
2017-05-13T02:55:27.971Z,74.16
2017-05-13T02:56:37.066Z,74.45
2017-05-13T02:57:46.273Z,74.55
2017-05-13T02:58:55.239Z,74.65
2017-05-13T03:00:04.204Z,74.36
2017-05-13T03:01:13.166Z,74.84
2017-05-13T03:02:22.213Z,74.65
2017-05-13T03:03:31.419Z,74.9
2017-05-13T03:04:40.385Z,75.27
2017-05-13T03:05:51.413Z,75.66
2017-05-13T03:07:00.381Z,75.95
2017-05-13T03:08:09.343Z,75.76
2017-05-13T03:09:18.599Z,76.04
2017-05-13T03:10:27.565Z,75.95
2017-05-13T03:11:36.519Z,75.66
2017-05-13T03:12:45.804Z,76.42
2017-05-13T03:13:54.774Z,76.04
2017-05-13T03:15:03.987Z,77.09
2017-05-13T03:16:12.956Z,76.81
2017-05-13T03:17:21.937Z,76.71
2017-05-13T03:18:30.901Z,77.57
2017-05-13T03:19:39.858Z,78.14
2017-05-13T03:20:49.123Z,77.53
2017-05-13T03:21:58.173Z,77.28
2017-05-13T03:23:07.137Z,77.34
2017-05-13T03:24:16.101Z,79.16
2017-05-13T03:25:25.060Z,80.3
2017-05-13T03:26:34.321Z,80.59
2017-05-13T03:27:43.664Z,81.07
2017-05-13T03:28:52.709Z,80.98
2017-05-13T03:30:02.008Z,80.4
2017-05-13T03:31:11.147Z,80.11
2017-05-13T03:32:20.409Z,79.83
2017-05-13T03:33:29.449Z,79.35
2017-05-13T03:34:38.498Z,79.44
2017-05-13T03:35:47.464Z,79.16
2017-05-13T03:36:56.421Z,79.16
2017-05-13T03:38:05.633Z,79.25
2017-05-13T03:39:14.597Z,79.93
2017-05-13T03:40:23.560Z,79.64
2017-05-13T03:41:32.518Z,79.16
2017-05-13T03:42:41.475Z,78.97
2017-05-13T03:43:50.777Z,79.06
2017-05-13T03:44:59.739Z,78.2
2017-05-13T03:46:08.699Z,79.06
2017-05-13T03:47:17.658Z,79.35
2017-05-13T03:48:26.708Z,79.06
2017-05-13T03:49:35.977Z,79.54
2017-05-13T03:50:45.074Z,79.06
2017-05-13T03:51:54.038Z,78.11
2017-05-13T03:53:03.000Z,78.58
2017-05-13T03:54:11.960Z,78.97
2017-05-13T03:55:21.170Z,78.78
2017-05-13T03:56:30.451Z,78.3
2017-05-13T03:57:39.413Z,77.72
2017-05-13T03:58:48.368Z,77.72
2017-05-13T03:59:57.329Z,77.72
2017-05-13T04:01:06.539Z,78.39
2017-05-13T04:02:15.499Z,77.82
2017-05-13T04:03:24.466Z,77.92
2017-05-13T04:04:33.425Z,78.3
2017-05-13T04:05:42.380Z,78.01
2017-05-13T04:06:51.639Z,78.78
2017-05-13T04:08:00.597Z,77.92
2017-05-13T04:09:09.559Z,79.16
2017-05-13T04:10:18.603Z,78.01
2017-05-13T04:11:27.558Z,77.44
2017-05-13T04:12:36.770Z,77.06
2017-05-13T04:13:45.741Z,77.25
2017-05-13T04:14:54.701Z,77.25
2017-05-13T04:16:03.660Z,76.67
2017-05-13T04:17:12.620Z,76.77
2017-05-13T04:18:21.886Z,76.67
2017-05-13T04:19:30.847Z,76.77
2017-05-13T04:20:39.800Z,76.57
2017-05-13T04:21:48.767Z,77.06
2017-05-13T04:22:57.776Z,77.34
2017-05-13T04:24:07.034Z,77.15
2017-05-13T04:25:16.083Z,77.53
2017-05-13T04:26:25.043Z,77.82
2017-05-13T04:27:34.051Z,78.01
2017-05-13T04:28:43.017Z,78.2
2017-05-13T04:29:52.546Z,78.49
2017-05-13T04:31:01.514Z,78.01
2017-05-13T04:32:10.521Z,78.39
2017-05-13T04:33:19.485Z,78.2
2017-05-13T04:34:28.450Z,78.87
2017-05-13T04:35:37.653Z,78.78
2017-05-13T04:36:46.613Z,78.49
2017-05-13T04:37:55.655Z,78.49
2017-05-13T04:39:04.701Z,78.49
2017-05-13T04:40:13.656Z,78.49
2017-05-13T04:41:22.870Z,78.97
2017-05-13T04:42:31.839Z,78.3
2017-05-13T04:43:41.206Z,78.49
2017-05-13T04:44:50.166Z,78.34
2017-05-13T04:45:59.124Z,79
2017-05-13T04:47:08.331Z,79.1
2017-05-13T04:48:17.296Z,79.58
2017-05-13T04:49:26.268Z,79.39
2017-05-13T04:50:35.316Z,79.49
2017-05-13T04:51:44.277Z,78.81
2017-05-13T04:52:53.529Z,79.1
2017-05-13T04:54:02.585Z,78.81
2017-05-13T04:55:11.542Z,79
2017-05-13T04:56:20.499Z,79.49
2017-05-13T04:57:29.457Z,79.1
2017-05-13T04:58:39.040Z,78.81
2017-05-13T04:59:48.093Z,78.14
2017-05-13T05:00:57.144Z,78.24
2017-05-13T05:02:06.109Z,78.14
2017-05-13T05:03:15.067Z,78.76
2017-05-13T05:04:24.323Z,79.2
2017-05-13T05:05:33.363Z,79.68
2017-05-13T05:06:42.324Z,79.14
2017-05-13T05:07:51.283Z,78.28
2017-05-13T05:09:00.248Z,77.8
2017-05-13T05:10:09.461Z,77.61
2017-05-13T05:11:18.751Z,78.19
2017-05-13T05:12:27.803Z,78.47
2017-05-13T05:13:36.761Z,79.05
2017-05-13T05:14:45.718Z,78.47
2017-05-13T05:15:54.930Z,77.99
2017-05-13T05:17:03.886Z,77.51
2017-05-13T05:18:12.847Z,77.61
2017-05-13T05:19:21.807Z,77.61
2017-05-13T05:20:30.770Z,77.61
2017-05-13T05:21:40.116Z,78.09
2017-05-13T05:22:49.167Z,77.9
2017-05-13T05:23:58.131Z,77.33
2017-05-13T05:25:07.089Z,77.7
2017-05-13T05:26:16.050Z,77.99
2017-05-13T05:27:25.634Z,78.09
2017-05-13T05:28:34.596Z,77.8
2017-05-13T05:29:43.555Z,78.28
2017-05-13T05:30:52.603Z,78.19
2017-05-13T05:32:01.566Z,78.47
2017-05-13T05:33:10.773Z,78.28
2017-05-13T05:34:19.733Z,79.43
2017-05-13T05:35:28.694Z,79.24
2017-05-13T05:36:37.648Z,80.38
2017-05-13T05:37:46.605Z,82.01
2017-05-13T05:38:55.952Z,84.79
2017-05-13T05:40:04.910Z,84.84
2017-05-13T05:41:13.864Z,87.37
2017-05-13T05:42:22.826Z,88.57
2017-05-13T05:43:31.783Z,89.91
2017-05-13T05:44:40.993Z,91.73
2017-05-13T05:45:49.959Z,91.44
2017-05-13T05:46:58.916Z,92.21
2017-05-13T05:48:07.876Z,93.4
2017-05-13T05:49:16.966Z,93.6
2017-05-13T05:50:26.225Z,93.21
2017-05-13T05:51:35.277Z,93.4
2017-05-13T05:52:44.321Z,93.69
2017-05-13T05:53:53.279Z,93.12
2017-05-13T05:55:02.241Z,93.21
2017-05-13T05:56:11.450Z,94.55
2017-05-13T05:57:20.411Z,95.32
2017-05-13T05:58:29.455Z,95.51
2017-05-13T05:59:38.415Z,95.41
2017-05-13T06:00:47.377Z,95.03
2017-05-13T06:01:56.669Z,95.41
2017-05-13T06:03:05.626Z,95.22
2017-05-13T06:04:14.586Z,95.89
2017-05-13T06:05:23.545Z,96.27
2017-05-13T06:06:32.503Z,96.37
2017-05-13T06:07:41.714Z,96.27
2017-05-13T06:08:50.671Z,95.7
2017-05-13T06:09:59.626Z,96.27
2017-05-13T06:11:08.580Z,96.75
2017-05-13T06:12:17.544Z,95.79
2017-05-13T06:13:26.812Z,95.32
2017-05-13T06:14:35.790Z,95.51
2017-05-13T06:15:44.751Z,95.32
2017-05-13T06:16:53.711Z,95.61
2017-05-13T06:18:02.669Z,95.51
2017-05-13T06:19:11.874Z,95.7
2017-05-13T06:20:20.831Z,95.79
2017-05-13T06:21:29.787Z,96.56
2017-05-13T06:22:38.746Z,96.75
2017-05-13T06:23:47.718Z,96.37
2017-05-13T06:24:56.976Z,96.94
2017-05-13T06:26:06.023Z,96.84
2017-05-13T06:27:15.006Z,97.23
2017-05-13T06:28:24.056Z,96.75
2017-05-13T06:29:33.010Z,96.75
2017-05-13T06:30:42.403Z,96.37
2017-05-13T06:31:51.362Z,96.18
2017-05-13T06:33:00.317Z,96.27
2017-05-13T06:34:09.277Z,95.79
2017-05-13T06:35:18.238Z,95.03
2017-05-13T06:36:27.546Z,95.12
2017-05-13T06:37:36.589Z,96.27
2017-05-13T06:38:45.877Z,96.08
2017-05-13T06:39:54.838Z,96.37
2017-05-13T06:41:03.795Z,95.51
2017-05-13T06:42:13.087Z,95.79
2017-05-13T06:43:22.047Z,95.61
2017-05-13T06:44:31.000Z,95.32
2017-05-13T06:45:39.953Z,96.37
2017-05-13T06:46:48.911Z,95.98
2017-05-13T06:47:58.215Z,95.32
2017-05-13T06:49:07.170Z,95.12
2017-05-13T06:50:16.128Z,96.18
2017-05-13T06:51:25.225Z,95.51
2017-05-13T06:52:34.185Z,95.12
2017-05-13T06:53:43.447Z,95.7
2017-05-13T06:54:52.405Z,95.41
2017-05-13T06:56:01.372Z,95.12
2017-05-13T06:57:10.338Z,95.79
2017-05-13T06:58:19.634Z,95.51
2017-05-13T06:59:28.897Z,94.46
2017-05-13T07:00:37.945Z,95.41
2017-05-13T07:01:46.906Z,94.74
2017-05-13T07:02:55.898Z,94.65
2017-05-13T07:04:04.864Z,94.5
2017-05-13T07:05:14.163Z,95.32
2017-05-13T07:06:23.121Z,96.42
2017-05-13T07:07:32.079Z,96.42
2017-05-13T07:08:41.130Z,96.42
2017-05-13T07:09:50.420Z,95.56
2017-05-13T07:10:59.675Z,96.32
2017-05-13T07:12:08.642Z,95.75
2017-05-13T07:13:17.603Z,96.42
2017-05-13T07:14:26.564Z,96.8
2017-05-13T07:15:35.621Z,96.7
2017-05-13T07:16:44.884Z,96.22
2017-05-13T07:17:54.572Z,96.51
2017-05-13T07:19:03.534Z,96.22
2017-05-13T07:20:12.580Z,95.75
2017-05-13T07:21:21.535Z,96.51
2017-05-13T07:22:30.832Z,96.32
2017-05-13T07:23:39.796Z,96.22
2017-05-13T07:24:48.760Z,96.7
2017-05-13T07:25:57.728Z,96.32
2017-05-13T07:27:06.689Z,96.51
2017-05-13T07:28:15.895Z,96.32
2017-05-13T07:29:24.863Z,96.37
2017-05-13T07:30:33.911Z,95.7
2017-05-13T07:31:42.875Z,95.46
2017-05-13T07:32:51.876Z,95.27
2017-05-13T07:34:01.172Z,96.27
2017-05-13T07:35:10.130Z,96.47
2017-05-13T07:36:19.086Z,96.08
2017-05-13T07:37:28.096Z,96.27
2017-05-13T07:38:37.061Z,96.27
2017-05-13T07:39:46.326Z,95.61
2017-05-13T07:40:55.284Z,95.7
2017-05-13T07:42:04.246Z,94.93
2017-05-13T07:43:13.207Z,95.22
2017-05-13T07:44:22.216Z,94.45
2017-05-13T07:45:31.475Z,95.79
2017-05-13T07:46:40.433Z,95.89
2017-05-13T07:47:49.734Z,95.89
2017-05-13T07:48:58.698Z,94.55
2017-05-13T07:50:07.744Z,94.36
2017-05-13T07:51:16.953Z,96.27
2017-05-13T07:52:25.913Z,96.37
2017-05-13T07:53:34.909Z,96.27
2017-05-13T07:54:44.054Z,96.27
2017-05-13T07:55:53.020Z,95.7
2017-05-13T07:57:02.283Z,95.41
2017-05-13T07:58:11.241Z,95.89
2017-05-13T07:59:20.205Z,96.03
2017-05-13T08:00:29.166Z,95.12
2017-05-13T08:01:38.126Z,95.41
2017-05-13T08:02:47.383Z,94.65
2017-05-13T08:03:56.341Z,94.36
2017-05-13T08:05:05.299Z,94.02
2017-05-13T08:06:14.261Z,93.83
2017-05-13T08:07:23.312Z,95.12
2017-05-13T08:08:32.660Z,94.74
2017-05-13T08:09:41.618Z,94.6
2017-05-13T08:10:50.575Z,95.17
2017-05-13T08:11:59.538Z,95.75
2017-05-13T08:13:09.147Z,95.75
2017-05-13T08:14:18.396Z,95.56
2017-05-13T08:15:27.358Z,94.4
2017-05-13T08:16:36.318Z,95.07
2017-05-13T08:17:45.282Z,94.6
2017-05-13T08:18:54.243Z,94.6
2017-05-13T08:20:03.502Z,95.94
2017-05-13T08:21:12.473Z,96.03
2017-05-13T08:22:21.429Z,95.56
2017-05-13T08:23:30.431Z,94.6
2017-05-13T08:24:39.477Z,94.4
2017-05-13T08:25:48.693Z,94.98
2017-05-13T08:26:57.652Z,94.4
2017-05-13T08:28:06.615Z,93.93
2017-05-13T08:29:15.659Z,93.83
2017-05-13T08:30:24.633Z,94.21
2017-05-13T08:31:33.978Z,94.12
2017-05-13T08:32:42.936Z,94.12
2017-05-13T08:33:51.898Z,93.64
2017-05-13T08:35:00.952Z,94.5
2017-05-13T08:36:09.909Z,94.02
2017-05-13T08:37:19.117Z,93.64
2017-05-13T08:38:28.085Z,94.21
2017-05-13T08:39:37.047Z,93.54
2017-05-13T08:40:46.011Z,93.83
2017-05-13T08:41:54.976Z,94.21
2017-05-13T08:43:04.241Z,94.02
2017-05-13T08:44:13.206Z,94.6
2017-05-13T08:45:22.166Z,94.6
2017-05-13T08:46:31.122Z,93.74
2017-05-13T08:47:40.088Z,93.54
2017-05-13T08:48:49.306Z,93.83
2017-05-13T08:49:58.353Z,94.69
2017-05-13T08:51:07.313Z,94.12
2017-05-13T08:52:16.267Z,93.54
2017-05-13T08:53:25.547Z,93.74
2017-05-13T08:54:34.854Z,94.12
2017-05-13T08:55:43.814Z,93.83
2017-05-13T08:56:52.774Z,94.5
2017-05-13T08:58:01.732Z,94.98
2017-05-13T08:59:10.692Z,94.79
2017-05-13T09:00:19.900Z,95.65
2017-05-13T09:01:28.861Z,95.75
2017-05-13T09:02:37.863Z,96.42
2017-05-13T09:03:46.918Z,95.27
2017-05-13T09:04:56.228Z,96.22
2017-05-13T09:06:05.494Z,96.32
2017-05-13T09:07:14.455Z,96.42
2017-05-13T09:08:23.445Z,96.99
2017-05-13T09:09:32.557Z,96.99
2017-05-13T09:10:41.565Z,96.32
2017-05-13T09:11:50.826Z,96.7
2017-05-13T09:12:59.784Z,97.66
2017-05-13T09:14:08.742Z,97.47
2017-05-13T09:15:17.698Z,97.38
2017-05-13T09:16:26.658Z,97.75
2017-05-13T09:17:35.916Z,98.14
2017-05-13T09:18:45.092Z,97.47
2017-05-13T09:19:54.052Z,98.24
2017-05-13T09:21:03.017Z,98.28
2017-05-13T09:22:12.024Z,98.38
2017-05-13T09:23:21.283Z,98
2017-05-13T09:24:30.328Z,99.99
2017-05-13T09:25:39.293Z,99.99
2017-05-13T09:26:48.246Z,99.99
2017-05-13T09:27:57.291Z,99.99
2017-05-13T09:29:06.591Z,99.99
2017-05-13T09:30:15.558Z,99.99
2017-05-13T09:31:24.568Z,99.99
2017-05-13T09:32:33.634Z,99.99
2017-05-13T09:33:42.699Z,99.99
2017-05-13T09:34:51.955Z,99.99
2017-05-13T09:36:01.073Z,99.99
2017-05-13T09:37:10.036Z,99.99
2017-05-13T09:38:20.673Z,99.99
2017-05-13T09:39:34.630Z,99.99
2017-05-13T09:40:43.888Z,99.99
2017-05-13T09:41:52.844Z,99.99
2017-05-13T09:43:01.804Z,99.99
2017-05-13T09:44:10.771Z,99.99
2017-05-13T09:45:19.733Z,99.99
2017-05-13T09:46:28.938Z,99.99
2017-05-13T09:47:37.901Z,99.99
2017-05-13T09:48:46.870Z,99.99
2017-05-13T09:49:55.826Z,99.99
2017-05-13T09:51:04.784Z,99.99
2017-05-13T09:52:14.044Z,99.99
2017-05-13T09:53:23.091Z,99.99
2017-05-13T09:54:32.050Z,99.99
2017-05-13T09:55:41.007Z,99.99
2017-05-13T09:56:49.968Z,99.99
2017-05-13T09:57:59.179Z,99.99
2017-05-13T09:59:08.145Z,99.99
2017-05-13T10:00:17.102Z,99.99
2017-05-13T10:01:26.061Z,99.99
2017-05-13T10:02:35.103Z,99.99
2017-05-13T10:03:44.536Z,99.99
2017-05-13T10:04:53.494Z,99.99
2017-05-13T10:06:02.454Z,99.99
2017-05-13T10:07:11.454Z,99.99
2017-05-13T10:08:20.503Z,99.99
2017-05-13T10:09:29.762Z,99.99
2017-05-13T10:10:38.721Z,99.99
2017-05-13T10:11:47.683Z,99.99
2017-05-13T10:12:56.641Z,99.99
2017-05-13T10:14:05.599Z,99.99
2017-05-13T10:15:14.870Z,99.99
2017-05-13T10:16:23.828Z,99.99
2017-05-13T10:17:33.106Z,99.99
2017-05-13T10:18:42.065Z,99.99
2017-05-13T10:19:51.352Z,99.99
2017-05-13T10:21:00.566Z,99.99
2017-05-13T10:22:09.522Z,99.99
2017-05-13T10:23:18.474Z,99.99
2017-05-13T10:24:27.441Z,99.99
2017-05-13T10:25:36.396Z,99.99
2017-05-13T10:26:45.742Z,99.99
2017-05-13T10:27:54.700Z,99.99
2017-05-13T10:29:03.746Z,99.99
2017-05-13T10:30:12.704Z,99.99
2017-05-13T10:31:21.664Z,99.99
2017-05-13T10:32:30.923Z,99.99
2017-05-13T10:33:39.879Z,99.99
2017-05-13T10:34:49.213Z,99.99
2017-05-13T10:35:58.169Z,99.99
2017-05-13T10:37:07.126Z,99.99
2017-05-13T10:38:16.382Z,99.99
2017-05-13T10:39:25.340Z,99.99
2017-05-13T10:40:34.299Z,99.99
2017-05-13T10:41:43.255Z,99.99
2017-05-13T10:42:52.625Z,99.99
2017-05-13T10:44:01.884Z,99.99
2017-05-13T10:45:10.842Z,99.99
2017-05-13T10:46:19.796Z,99.99
2017-05-13T10:47:28.752Z,99.99
2017-05-13T10:48:37.711Z,99.99
2017-05-13T10:49:46.922Z,99.99
2017-05-13T10:50:55.880Z,99.99
2017-05-13T10:52:04.844Z,99.99
2017-05-13T10:53:13.805Z,99.99
2017-05-13T10:54:22.770Z,99.99
2017-05-13T10:55:32.027Z,99.99
2017-05-13T10:56:40.991Z,99.99
2017-05-13T10:57:49.948Z,99.99
2017-05-13T10:58:58.908Z,99.99
2017-05-13T11:00:07.874Z,99.99
2017-05-13T11:01:17.140Z,99.99
2017-05-13T11:02:26.099Z,99.99
2017-05-13T11:03:35.073Z,99.99
2017-05-13T11:04:44.045Z,99.99
2017-05-13T11:05:53.327Z,99.99
2017-05-13T11:07:02.686Z,99.99
2017-05-13T11:08:11.651Z,99.99
2017-05-13T11:09:20.936Z,99.99
2017-05-13T11:10:29.894Z,99.99
2017-05-13T11:11:38.853Z,99.99
2017-05-13T11:12:48.114Z,99.99
2017-05-13T11:13:57.071Z,99.99
2017-05-13T11:15:06.034Z,99.99
2017-05-13T11:16:14.992Z,99.99
2017-05-13T11:17:23.950Z,99.99
2017-05-13T11:18:33.209Z,99.99
2017-05-13T11:19:42.168Z,99.99
2017-05-13T11:20:51.129Z,99.99
2017-05-13T11:22:00.743Z,99.99
2017-05-13T11:23:09.785Z,99.99
2017-05-13T11:24:19.086Z,99.99
2017-05-13T11:25:28.222Z,99.99
2017-05-13T11:26:37.179Z,99.99
2017-05-13T11:27:46.146Z,99.99
2017-05-13T11:28:55.106Z,99.99
2017-05-13T11:30:04.378Z,99.99
2017-05-13T11:31:13.342Z,99.99
2017-05-13T11:32:22.303Z,99.99
2017-05-13T11:33:31.261Z,99.99
2017-05-13T11:34:40.311Z,99.99
2017-05-13T11:35:49.573Z,99.99
2017-05-13T11:36:58.526Z,99.99
2017-05-13T11:38:07.491Z,99.99
2017-05-13T11:39:16.861Z,99.99
2017-05-13T11:40:25.821Z,99.99
2017-05-13T11:41:35.082Z,99.99
2017-05-13T11:42:44.368Z,99.99
2017-05-13T11:43:53.328Z,99.99
2017-05-13T11:45:02.288Z,99.99
2017-05-13T11:46:11.294Z,99.99
2017-05-13T11:47:20.505Z,99.99
2017-05-13T11:48:29.559Z,99.99
2017-05-13T11:49:38.515Z,99.99
2017-05-13T11:50:47.474Z,99.99
2017-05-13T11:51:56.440Z,99.99
2017-05-13T11:53:05.695Z,99.99
2017-05-13T11:54:14.657Z,99.99
2017-05-13T11:55:23.659Z,99.99
2017-05-13T11:56:32.708Z,99.99
2017-05-13T11:57:41.666Z,99.99
2017-05-13T11:58:50.965Z,99.99
2017-05-13T11:59:59.924Z,99.99
2017-05-13T12:01:08.881Z,99.99
2017-05-13T12:02:17.839Z,99.99
2017-05-13T12:03:26.799Z,99.99
2017-05-13T12:04:36.060Z,99.99
2017-05-13T12:05:45.024Z,99.99
2017-05-13T12:06:53.982Z,99.99
2017-05-13T12:08:02.947Z,99.99
2017-05-13T12:09:11.909Z,99.99
2017-05-13T12:10:21.166Z,99.99
2017-05-13T12:11:30.129Z,99.99
2017-05-13T12:12:39.094Z,99.99
2017-05-13T12:13:48.055Z,99.99
2017-05-13T12:14:57.012Z,99.99
2017-05-13T12:16:06.274Z,99.99
2017-05-13T12:17:15.236Z,99.99
2017-05-13T12:18:24.196Z,99.99
2017-05-13T12:19:33.158Z,99.99
2017-05-13T12:20:42.116Z,99.99
2017-05-13T12:21:51.459Z,99.99
2017-05-13T12:23:00.428Z,99.99
2017-05-13T12:24:09.393Z,99.99
2017-05-13T12:25:18.351Z,99.99
2017-05-13T12:26:27.316Z,99.99
2017-05-13T12:27:36.527Z,99.99
2017-05-13T12:28:45.484Z,99.99
2017-05-13T12:29:54.441Z,99.99
2017-05-13T12:31:03.408Z,99.99
2017-05-13T12:32:12.367Z,99.99
2017-05-13T12:33:21.666Z,99.99
2017-05-13T12:34:30.714Z,99.99
2017-05-13T12:35:39.673Z,99.99
2017-05-13T12:36:48.971Z,99.99
2017-05-13T12:37:57.935Z,99.97
2017-05-13T12:39:07.198Z,99.99
2017-05-13T12:40:16.248Z,99.2
2017-05-13T12:41:25.213Z,99.78
2017-05-13T12:42:34.186Z,99.99
2017-05-13T12:43:43.468Z,99.99
2017-05-13T12:44:52.817Z,99.99
2017-05-13T12:46:01.774Z,99.99
2017-05-13T12:47:10.735Z,99.99
2017-05-13T12:48:19.692Z,99.99
2017-05-13T12:49:28.657Z,99.99
2017-05-13T12:50:37.870Z,99.99
2017-05-13T12:51:46.833Z,99.99
2017-05-13T12:52:55.795Z,99.99
2017-05-13T12:54:04.761Z,99.99
2017-05-13T12:55:13.811Z,99.99
2017-05-13T12:56:23.079Z,99.99
2017-05-13T12:57:32.046Z,99.99
2017-05-13T12:58:41.015Z,99.99
2017-05-13T12:59:50.071Z,99.99
2017-05-13T13:00:59.030Z,99.99
2017-05-13T13:02:08.345Z,99.99
2017-05-13T13:03:17.306Z,99.99
2017-05-13T13:04:26.265Z,99.99
2017-05-13T13:05:35.227Z,99.99
2017-05-13T13:06:44.190Z,99.99
2017-05-13T13:07:53.447Z,99.99
2017-05-13T13:09:02.412Z,99.99
2017-05-13T13:10:11.467Z,99.35
2017-05-13T13:11:20.431Z,99.73
2017-05-13T13:12:29.479Z,99.99
2017-05-13T13:13:38.690Z,99.99
2017-05-13T13:14:47.648Z,99.99
2017-05-13T13:15:56.607Z,99.99
2017-05-13T13:17:05.564Z,99.99
2017-05-13T13:18:14.528Z,99.99
2017-05-13T13:19:23.787Z,99.99
2017-05-13T13:20:32.748Z,99.99
2017-05-13T13:21:41.715Z,99.99
2017-05-13T13:22:51.152Z,99.99
2017-05-13T13:24:00.314Z,99.99
2017-05-13T13:25:09.575Z,99.99
2017-05-13T13:26:18.622Z,99.99
2017-05-13T13:27:27.578Z,99.99
2017-05-13T13:28:36.538Z,99.99
2017-05-13T13:29:45.502Z,99.99
2017-05-13T13:30:54.714Z,99.99
2017-05-13T13:32:03.671Z,99.99
2017-05-13T13:33:12.664Z,99.99
2017-05-13T13:34:21.630Z,99.99
2017-05-13T13:35:30.587Z,99.99
2017-05-13T13:36:39.796Z,99.99
2017-05-13T13:37:49.092Z,99.99
2017-05-13T13:38:58.051Z,99.99
2017-05-13T13:40:07.103Z,99.99
2017-05-13T13:41:16.065Z,99.99
2017-05-13T13:42:25.282Z,99.99
2017-05-13T13:43:34.243Z,99.99
2017-05-13T13:44:43.201Z,99.99
2017-05-13T13:45:52.250Z,99.99
2017-05-13T13:47:01.210Z,99.99
2017-05-13T13:48:10.471Z,99.54
2017-05-13T13:49:19.442Z,98.49
2017-05-13T13:50:28.404Z,99.54
2017-05-13T13:51:37.364Z,99.99
2017-05-13T13:52:46.663Z,99.64
2017-05-13T13:53:55.925Z,99.99
2017-05-13T13:55:04.894Z,99.99
2017-05-13T13:56:13.927Z,99.99
2017-05-13T13:57:22.889Z,99.99
2017-05-13T13:58:31.859Z,99.99
2017-05-13T13:59:41.124Z,99.99
2017-05-13T14:00:50.085Z,99.59
2017-05-13T14:01:59.043Z,99.99
2017-05-13T14:03:08.000Z,99.99
2017-05-13T14:04:16.961Z,99.78
2017-05-13T14:05:26.222Z,98.34
2017-05-13T14:06:35.185Z,99.4
2017-05-13T14:07:44.147Z,99.99
2017-05-13T14:08:53.115Z,99.99
2017-05-13T14:10:02.075Z,99.99
2017-05-13T14:11:11.343Z,99.99
2017-05-13T14:12:20.308Z,97.86
2017-05-13T14:13:29.280Z,99.01
2017-05-13T14:14:38.240Z,98.44
2017-05-13T14:15:47.201Z,99.99
2017-05-13T14:16:56.469Z,98.54
2017-05-13T14:18:05.517Z,98.63
2017-05-13T14:19:14.479Z,99.99
2017-05-13T14:20:23.445Z,99.99
2017-05-13T14:21:32.408Z,99.99
2017-05-13T14:22:41.992Z,99.99
2017-05-13T14:23:50.957Z,99.99
2017-05-13T14:24:59.918Z,99.99
2017-05-13T14:26:09.304Z,99.99
2017-05-13T14:27:18.304Z,99.99
2017-05-13T14:28:27.573Z,99.99
2017-05-13T14:29:36.535Z,98.63
2017-05-13T14:30:45.594Z,98.05
2017-05-13T14:31:54.645Z,99.01
2017-05-13T14:33:03.611Z,99.49
2017-05-13T14:34:12.871Z,99.69
2017-05-13T14:35:21.839Z,96.99
2017-05-13T14:36:30.889Z,98.87
2017-05-13T14:37:39.853Z,98.05
2017-05-13T14:38:48.936Z,99.3
2017-05-13T14:39:58.179Z,99.69
2017-05-13T14:41:07.144Z,99.99
2017-05-13T14:42:16.104Z,99.99
2017-05-13T14:43:25.065Z,99.99
2017-05-13T14:44:34.025Z,99.99
2017-05-13T14:45:43.241Z,99.99
2017-05-13T14:46:52.291Z,99.99
2017-05-13T14:48:01.258Z,99.99
2017-05-13T14:49:10.302Z,99.4
2017-05-13T14:50:19.354Z,99.99
2017-05-13T14:51:28.567Z,99.99